Time;durP1;ratioP1;P1;durP2;ratioP2;P2;SDS_P1;SDS_P2;PMS_P1;PMS_P2;Temp;Humidity;BMP_temperature;BMP_pressure;BME280_temperature;BME280_humidity;BME280_pressure;Samples;Min_cycle;Max_cycle;Signal;HPM_P1;HPM_P2
2023/10/06 00:00:10;;;;;;;26.52;5.45;;;15.80;99.90;;;;;;5057824;28;20040;-51
2023/10/06 00:02:36;;;;;;;25.27;4.03;;;15.80;99.90;;;;;;5057975;28;20442;-51
2023/10/06 00:05:11;;;;;;;34.20;5.15;;;15.80;99.90;;;;;;5057770;28;20044;-51
2023/10/06 00:07:36;;;;;;;18.02;3.58;;;15.70;99.90;;;;;;5058132;28;20457;-50
2023/10/06 00:10:07;;;;;;;29.25;5.18;;;15.70;99.90;;;;;;5058097;28;20049;-51
2023/10/06 00:12:33;;;;;;;14.25;3.30;;;15.80;99.90;;;;;;5057967;28;20025;-51
2023/10/06 00:14:59;;;;;;;26.10;2.95;;;15.70;99.90;;;;;;5057844;28;20048;-50
2023/10/06 00:17:28;;;;;;;15.98;3.60;;;15.70;99.90;;;;;;5057551;28;20043;-51
2023/10/06 00:19:59;;;;;;;25.75;4.70;;;15.70;99.90;;;;;;5057889;28;20047;-50
2023/10/06 00:22:26;;;;;;;15.85;3.10;;;15.70;99.90;;;;;;5057777;28;20029;-48
2023/10/06 00:24:55;;;;;;;32.28;5.20;;;15.70;99.90;;;;;;5057755;28;20032;-48
2023/10/06 00:27:29;;;;;;;33.30;5.30;;;15.70;99.90;;;;;;5057583;28;20060;-49
2023/10/06 00:29:55;;;;;;;24.30;4.95;;;15.70;99.90;;;;;;5056665;28;20033;-47
2023/10/06 00:32:27;;;;;;;29.10;4.72;;;15.70;99.90;;;;;;5040123;28;20039;-50
2023/10/06 00:35:10;;;;;;;24.35;4.78;;;15.70;99.90;;;;;;5056447;28;20029;-50
2023/10/06 00:37:38;;;;;;;28.27;4.60;;;15.70;99.90;;;;;;5057663;28;20037;-50
2023/10/06 00:40:19;;;;;;;24.88;3.72;;;15.70;99.90;;;;;;5057573;28;20025;-50
2023/10/06 00:42:49;;;;;;;30.98;5.57;;;15.70;99.90;;;;;;5057449;28;20028;-48
2023/10/06 00:45:15;;;;;;;31.63;4.95;;;15.70;99.90;;;;;;5057386;28;20033;-50
2023/10/06 00:47:41;;;;;;;20.65;3.95;;;15.70;99.90;;;;;;5056936;28;20343;-50
2023/10/06 00:50:14;;;;;;;16.23;3.97;;;15.70;99.90;;;;;;5056853;28;20075;-50
2023/10/06 00:52:40;;;;;;;34.55;5.28;;;15.70;99.90;;;;;;5057238;28;20128;-50
2023/10/06 00:55:10;;;;;;;18.63;4.30;;;15.70;99.90;;;;;;5057206;28;20074;-48
2023/10/06 00:57:36;;;;;;;16.63;3.80;;;15.70;99.90;;;;;;5057117;28;20040;-49
2023/10/06 01:00:16;;;;;;;23.77;4.32;;;15.70;99.90;;;;;;5057198;28;20476;-50
2023/10/06 01:02:43;;;;;;;23.55;4.60;;;15.70;99.90;;;;;;5056686;28;20033;-50
2023/10/06 01:05:09;;;;;;;42.95;6.50;;;15.70;99.90;;;;;;5039052;28;20040;-50
2023/10/06 01:07:36;;;;;;;20.20;4.50;;;15.70;99.90;;;;;;5057027;28;20132;-50
2023/10/06 01:10:14;;;;;;;29.92;5.38;;;15.70;99.90;;;;;;5055868;28;20024;-50
2023/10/06 01:12:40;;;;;;;19.13;3.75;;;15.70;99.90;;;;;;5057363;28;20430;-49
2023/10/06 01:15:16;;;;;;;24.98;4.40;;;15.70;99.90;;;;;;5056851;28;20116;-50
2023/10/06 01:17:45;;;;;;;23.98;5.20;;;15.80;99.90;;;;;;5055904;28;20457;-50
2023/10/06 01:20:14;;;;;;;37.03;5.78;;;15.80;99.90;;;;;;5056434;28;20033;-48
2023/10/06 01:22:44;;;;;;;30.45;5.18;;;15.80;99.90;;;;;;5056598;28;20033;-50
2023/10/06 01:25:20;;;;;;;31.58;5.60;;;15.80;99.90;;;;;;5056667;28;20056;-50
2023/10/06 01:27:50;;;;;;;27.48;4.53;;;15.80;99.90;;;;;;5040126;28;20135;-47
2023/10/06 01:30:19;;;;;;;25.48;4.85;;;15.80;99.90;;;;;;5056211;28;20465;-50
2023/10/06 01:32:45;;;;;;;33.17;5.70;;;15.80;99.90;;;;;;5056303;28;20526;-50
2023/10/06 01:35:12;;;;;;;29.67;4.80;;;15.80;99.90;;;;;;5055248;28;20029;-50
2023/10/06 01:37:48;;;;;;;31.48;5.68;;;15.80;99.90;;;;;;5056634;28;20392;-50
2023/10/06 01:40:43;;;;;;;35.92;5.97;;;15.80;99.90;;;;;;5055353;28;20033;-51
2023/10/06 01:42:59;;;;;;;17.33;4.65;;;15.80;99.90;;;;;;5055995;28;20036;-50
2023/10/06 01:45:26;;;;;;;26.20;5.28;;;15.80;99.90;;;;;;5055497;28;20090;-51
2023/10/06 01:47:56;;;;;;;21.48;4.30;;;15.80;99.90;;;;;;5055750;28;20029;-50
2023/10/06 01:50:28;;;;;;;27.25;4.72;;;15.80;99.90;;;;;;5056169;28;20021;-50
2023/10/06 01:52:55;;;;;;;23.63;4.55;;;15.80;99.90;;;;;;5055946;28;20037;-50
2023/10/06 01:55:24;;;;;;;31.00;5.15;;;15.80;99.90;;;;;;5056009;28;20158;-50
2023/10/06 01:57:54;;;;;;;25.50;5.07;;;15.80;99.90;;;;;;5056051;28;20032;-50
2023/10/06 02:00:31;;;;;;;17.98;4.28;;;15.80;99.90;;;;;;5056156;28;20051;-50
2023/10/06 02:02:56;;;;;;;24.65;4.40;;;15.80;99.90;;;;;;5056032;28;20408;-50
2023/10/06 02:05:22;;;;;;;35.65;5.68;;;15.80;99.90;;;;;;5055554;28;20116;-51
2023/10/06 02:07:48;;;;;;;20.42;4.80;;;15.80;99.90;;;;;;5055308;28;20124;-50
2023/10/06 02:10:15;;;;;;;31.77;5.05;;;15.80;99.90;;;;;;5055476;28;20102;-50
2023/10/06 02:12:45;;;;;;;24.35;3.97;;;15.80;99.90;;;;;;5054581;28;20024;-51
2023/10/06 02:15:11;;;;;;;20.15;4.53;;;15.80;99.90;;;;;;5055656;28;20021;-51
2023/10/06 02:17:43;;;;;;;34.00;5.30;;;15.80;99.90;;;;;;5055775;28;20091;-52
2023/10/06 02:20:13;;;;;;;15.00;3.97;;;15.80;99.90;;;;;;5055723;28;20074;-51
2023/10/06 02:22:38;;;;;;;;;;;15.80;99.90;;;;;;5055944;28;20433;-51
2023/10/06 02:25:09;;;;;;;27.77;4.60;;;15.80;99.90;;;;;;5055434;28;19924;-51
2023/10/06 02:27:44;;;;;;;18.98;4.25;;;15.80;99.90;;;;;;5055530;28;20088;-51
2023/10/06 02:30:15;;;;;;;17.27;3.40;;;15.80;99.90;;;;;;5055552;28;20043;-51
2023/10/06 02:32:45;;;;;;;22.98;4.10;;;15.80;99.90;;;;;;5055197;28;20028;-51
2023/10/06 02:35:12;;;;;;;21.30;3.75;;;15.80;99.90;;;;;;5054240;28;20078;-50
2023/10/06 02:37:41;;;;;;;20.50;3.53;;;15.80;99.90;;;;;;5054328;28;20157;-51
2023/10/06 02:40:16;;;;;;;19.20;3.45;;;15.80;99.90;;;;;;5055409;28;20106;-50
2023/10/06 02:42:46;;;;;;;22.55;3.42;;;15.80;99.90;;;;;;5055221;28;20029;-49
2023/10/06 02:45:40;;;;;;;12.57;4.45;;;15.80;99.90;;;;;;5055064;28;20028;-48
2023/10/06 02:48:06;;;;;;;19.48;4.43;;;15.80;99.90;;;;;;5054964;28;20047;-48
2023/10/06 02:50:33;;;;;;;17.63;3.03;;;15.80;99.90;;;;;;5054911;28;20036;-51
2023/10/06 02:52:59;;;;;;;23.02;3.47;;;15.80;99.90;;;;;;5053889;28;20021;-48
2023/10/06 02:55:31;;;;;;;14.70;2.85;;;15.80;99.90;;;;;;5054067;28;20028;-49
2023/10/06 02:57:58;;;;;;;14.98;3.42;;;15.80;99.90;;;;;;5054813;28;20033;-47
2023/10/06 03:02:55;;;;;;;15.50;3.60;;;15.80;99.90;;;;;;5053933;28;20134;-50
2023/10/06 03:05:33;;;;;;;16.38;4.10;;;15.80;99.90;;;;;;5054833;28;20107;-47
2023/10/06 03:08:08;;;;;;;20.83;3.57;;;15.90;99.90;;;;;;5053670;28;20059;-48
2023/10/06 03:10:42;;;;;;;15.95;2.80;;;15.80;99.90;;;;;;5054463;28;20021;-50
2023/10/06 03:13:09;;;;;;;16.48;4.15;;;15.80;99.90;;;;;;5053954;28;20032;-48
2023/10/06 03:15:36;;;;;;;18.98;3.25;;;15.80;99.90;;;;;;5054915;28;20032;-50
2023/10/06 03:18:03;;;;;;;19.70;3.10;;;15.80;99.90;;;;;;5054843;28;20033;-48
2023/10/06 03:20:34;;;;;;;16.48;3.38;;;15.80;99.90;;;;;;5054585;28;20029;-48
2023/10/06 03:23:04;;;;;;;16.05;3.65;;;15.80;99.90;;;;;;5054433;28;20067;-48
2023/10/06 03:25:35;;;;;;;22.70;5.18;;;15.80;99.90;;;;;;5054384;28;20044;-48
2023/10/06 03:28:01;;;;;;;16.90;3.75;;;15.80;99.90;;;;;;5054728;28;20033;-48
2023/10/06 03:30:27;;;;;;;16.10;3.83;;;15.80;99.90;;;;;;5054761;28;20029;-47
2023/10/06 03:32:54;;;;;;;14.80;3.03;;;15.80;99.90;;;;;;5054848;28;20141;-48
2023/10/06 03:35:23;;;;;;;24.98;3.80;;;15.80;99.90;;;;;;5054659;28;20170;-48
2023/10/06 03:37:53;;;;;;;;;;;15.80;99.90;;;;;;5055185;28;20021;-48
2023/10/06 03:40:23;;;;;;;20.67;3.57;;;15.80;99.90;;;;;;5054361;28;19912;-48
2023/10/06 03:42:49;;;;;;;22.63;4.72;;;15.80;99.90;;;;;;5054530;28;20449;-47
2023/10/06 03:45:27;;;;;;;19.60;5.20;;;15.80;99.90;;;;;;5054631;28;20040;-47
2023/10/06 03:48:08;;;;;;;21.98;3.72;;;15.80;99.90;;;;;;5054468;28;20449;-48
2023/10/06 03:50:43;;;;;;;27.83;4.60;;;15.80;99.90;;;;;;5053365;28;20086;-48
2023/10/06 03:53:11;;;;;;;28.15;4.32;;;15.80;99.90;;;;;;5054433;28;20110;-49
2023/10/06 03:55:45;;;;;;;11.95;2.55;;;15.80;99.90;;;;;;5053195;28;20230;-48
2023/10/06 03:58:13;;;;;;;19.02;3.53;;;15.80;99.90;;;;;;5054451;28;20146;-48
2023/10/06 04:00:40;;;;;;;25.92;4.35;;;15.80;99.90;;;;;;5054255;28;20029;-51
2023/10/06 04:03:13;;;;;;;12.98;2.97;;;15.80;99.90;;;;;;5054337;28;20033;-48
2023/10/06 04:05:44;;;;;;;17.48;3.55;;;15.80;99.90;;;;;;5053257;28;20041;-48
2023/10/06 04:08:17;;;;;;;26.08;4.97;;;15.80;99.90;;;;;;5054385;28;20422;-50
2023/10/06 04:10:44;;;;;;;24.35;4.28;;;15.80;99.90;;;;;;5056067;28;20361;-50
2023/10/06 04:13:10;;;;;;;14.77;3.15;;;15.80;99.90;;;;;;5056609;28;20029;-48
2023/10/06 04:15:43;;;;;;;29.90;4.35;;;15.80;99.90;;;;;;5058155;28;20109;-50
2023/10/06 04:18:10;;;;;;;19.67;3.95;;;15.80;99.90;;;;;;5058361;28;20049;-49
2023/10/06 04:20:40;;;;;;;26.90;5.32;;;15.80;99.90;;;;;;5057901;28;20040;-50
2023/10/06 04:23:11;;;;;;;27.27;4.63;;;15.80;99.90;;;;;;5058000;28;20068;-50
2023/10/06 04:25:37;;;;;;;19.02;4.30;;;15.80;99.90;;;;;;5056808;28;20032;-48
2023/10/06 04:28:11;;;;;;;28.67;5.07;;;15.80;99.90;;;;;;5057220;28;20436;-50
2023/10/06 04:30:42;;;;;;;24.20;4.40;;;15.80;99.90;;;;;;5057748;28;20345;-48
2023/10/06 04:33:09;;;;;;;32.67;5.13;;;15.80;99.90;;;;;;5057536;28;20124;-48
2023/10/06 04:35:39;;;;;;;12.13;3.05;;;15.80;99.90;;;;;;5056521;28;20023;-48
2023/10/06 04:38:05;;;;;;;19.83;3.10;;;15.80;99.90;;;;;;5057635;28;20418;-51
2023/10/06 04:40:32;;;;;;;20.55;4.88;;;15.80;99.90;;;;;;5057644;28;20039;-47
2023/10/06 04:42:58;;;;;;;32.40;4.72;;;15.80;99.90;;;;;;5057358;28;20464;-50
2023/10/06 04:45:24;;;;;;;32.63;5.20;;;15.80;99.90;;;;;;5057054;28;20115;-50
2023/10/06 04:47:50;;;;;;;31.75;5.50;;;15.80;99.90;;;;;;5057322;28;20083;-50
2023/10/06 04:50:16;;;;;;;22.55;4.05;;;15.80;99.90;;;;;;5056992;28;20061;-49
2023/10/06 04:52:46;;;;;;;28.35;4.63;;;15.80;99.90;;;;;;5056111;28;20025;-48
2023/10/06 04:55:13;;;;;;;25.70;3.88;;;15.80;99.90;;;;;;5057379;28;20029;-48
2023/10/06 04:57:41;;;;;;;31.77;5.15;;;15.80;99.90;;;;;;5057254;28;20469;-48
2023/10/06 05:00:13;;;;;;;22.33;4.30;;;15.80;99.90;;;;;;5056688;28;20072;-50
2023/10/06 05:02:42;;;;;;;23.67;4.38;;;15.80;99.90;;;;;;5056982;28;20462;-51
2023/10/06 05:05:10;;;;;;;38.97;5.95;;;15.80;99.90;;;;;;5056576;28;20032;-51
2023/10/06 05:07:37;;;;;;;24.80;4.80;;;15.80;99.90;;;;;;5055824;28;20063;-51
2023/10/06 05:10:08;;;;;;;22.38;4.45;;;15.80;99.90;;;;;;5056980;28;20021;-51
2023/10/06 05:12:37;;;;;;;28.65;4.50;;;15.80;99.90;;;;;;5056609;28;20036;-51
2023/10/06 05:15:07;;;;;;;31.73;5.47;;;15.90;99.90;;;;;;5055717;28;20033;-51
2023/10/06 05:17:39;;;;;;;23.27;3.97;;;15.90;99.90;;;;;;5039702;28;20466;-51
2023/10/06 05:20:05;;;;;;;28.88;4.93;;;15.90;99.90;;;;;;5055566;28;20033;-51
2023/10/06 05:22:31;;;;;;;26.85;5.25;;;15.90;99.90;;;;;;5056476;28;20449;-50
2023/10/06 05:25:01;;;;;;;31.52;4.97;;;15.90;99.90;;;;;;5056564;28;20047;-51
2023/10/06 05:27:26;;;;;;;25.88;4.72;;;15.90;99.90;;;;;;5056623;28;20057;-51
2023/10/06 05:29:52;;;;;;;28.08;5.20;;;15.90;99.90;;;;;;5056556;28;20068;-50
2023/10/06 05:32:18;;;;;;;24.98;4.88;;;15.90;99.90;;;;;;5056540;28;20066;-51
2023/10/06 05:34:43;;;;;;;21.25;4.82;;;15.90;99.90;;;;;;5056044;28;20025;-51
2023/10/06 05:37:09;;;;;;;25.80;4.38;;;15.90;99.90;;;;;;5056358;28;20033;-51
2023/10/06 05:39:35;;;;;;;24.38;5.80;;;15.90;99.90;;;;;;5056425;28;20037;-51
2023/10/06 05:42:04;;;;;;;34.33;6.03;;;15.90;99.90;;;;;;5056208;28;20441;-51
2023/10/06 05:44:30;;;;;;;21.87;4.17;;;15.90;99.90;;;;;;5055544;28;20450;-51
2023/10/06 05:46:56;;;;;;;21.05;4.63;;;15.90;99.90;;;;;;5055894;28;20130;-52
2023/10/06 05:49:22;;;;;;;25.83;4.28;;;15.90;99.90;;;;;;5055789;28;20366;-52
2023/10/06 05:51:49;;;;;;;28.80;5.60;;;15.90;99.90;;;;;;5056197;28;20021;-52
2023/10/06 05:54:21;;;;;;;35.78;4.75;;;15.90;99.90;;;;;;5055795;28;20090;-51
2023/10/06 05:56:52;;;;;;;30.33;4.80;;;15.90;99.90;;;;;;5055908;28;20061;-52
2023/10/06 05:59:19;;;;;;;26.67;5.05;;;15.90;99.90;;;;;;5055945;28;20037;-51
2023/10/06 06:01:46;;;;;;;21.98;4.78;;;15.90;99.90;;;;;;5055981;28;20041;-51
2023/10/06 06:04:12;;;;;;;27.30;4.72;;;15.90;99.90;;;;;;5055545;28;20053;-52
2023/10/06 06:06:38;;;;;;;35.03;4.82;;;15.90;99.90;;;;;;5055251;28;20509;-51
2023/10/06 06:09:14;;;;;;;22.33;3.95;;;15.90;99.90;;;;;;5055815;28;20033;-51
2023/10/06 06:11:40;;;;;;;18.70;3.15;;;15.90;99.90;;;;;;5055936;28;20501;-51
2023/10/06 06:14:06;;;;;;;30.70;4.97;;;15.90;99.90;;;;;;5055708;28;20056;-50
2023/10/06 06:16:32;;;;;;;20.92;3.55;;;15.90;99.90;;;;;;5055358;28;20029;-50
2023/10/06 06:18:58;;;;;;;28.92;4.95;;;15.90;99.90;;;;;;5054371;28;20029;-51
2023/10/06 06:21:24;;;;;;;21.25;3.78;;;15.90;99.90;;;;;;5055224;28;20385;-51
2023/10/06 06:23:51;;;;;;;18.75;3.85;;;15.90;99.90;;;;;;5055616;28;20403;-51
2023/10/06 06:26:17;;;;;;;31.27;5.05;;;15.90;99.90;;;;;;5055580;28;20437;-52
2023/10/06 06:28:46;;;;;;;21.27;4.47;;;15.90;99.90;;;;;;5055586;28;20039;-51
2023/10/06 06:31:18;;;;;;;20.15;4.00;;;15.90;99.90;;;;;;5055490;28;20353;-48
2023/10/06 06:33:44;;;;;;;30.20;5.10;;;15.90;99.90;;;;;;5054981;28;20025;-51
2023/10/06 06:36:09;;;;;;;19.17;4.05;;;15.90;99.90;;;;;;5054962;28;20036;-51
2023/10/06 06:38:39;;;;;;;25.77;4.55;;;15.90;99.90;;;;;;5053999;28;20013;-52
2023/10/06 06:41:05;;;;;;;26.88;4.70;;;15.90;99.90;;;;;;5055231;28;20025;-51
2023/10/06 06:43:31;;;;;;;24.35;4.00;;;15.90;99.90;;;;;;5055134;28;20044;-48
2023/10/06 06:45:58;;;;;;;26.58;4.90;;;15.90;99.90;;;;;;5054766;28;20025;-50
2023/10/06 06:48:24;;;;;;;30.60;5.03;;;15.90;99.90;;;;;;5055135;28;20082;-49
2023/10/06 06:50:52;;;;;;;29.67;4.78;;;15.90;99.90;;;;;;5054792;28;20048;-50
2023/10/06 06:53:20;;;;;;;26.25;5.07;;;15.90;99.90;;;;;;5054572;28;20517;-51
2023/10/06 06:55:46;;;;;;;29.75;5.32;;;15.90;99.90;;;;;;5053720;28;20039;-48
2023/10/06 06:58:12;;;;;;;32.88;5.20;;;15.90;99.90;;;;;;5054585;28;20108;-48
2023/10/06 07:00:39;;;;;;;34.13;4.65;;;15.90;99.90;;;;;;5055129;28;20500;-50
2023/10/06 07:03:05;;;;;;;23.75;4.80;;;16.00;99.90;;;;;;5054891;28;20098;-51
2023/10/06 07:05:31;;;;;;;30.08;5.47;;;15.90;99.90;;;;;;5053467;28;20131;-51
2023/10/06 07:07:56;;;;;;;29.70;4.88;;;15.90;99.90;;;;;;5054770;28;20037;-48
2023/10/06 07:10:22;;;;;;;27.02;4.85;;;16.00;99.90;;;;;;5054742;28;20429;-50
2023/10/06 07:12:51;;;;;;;23.05;3.50;;;16.00;99.90;;;;;;5054588;28;20033;-49
2023/10/06 07:15:18;;;;;;;21.02;4.03;;;15.90;99.90;;;;;;5054961;28;20028;-49
2023/10/06 07:17:45;;;;;;;26.75;4.93;;;15.90;99.90;;;;;;5054822;28;20033;-48
2023/10/06 07:20:16;;;;;;;26.50;4.10;;;16.00;99.90;;;;;;5053452;28;20915;-50
2023/10/06 07:22:45;;;;;;;26.60;5.22;;;15.90;99.90;;;;;;5054612;28;20182;-48
2023/10/06 07:25:17;;;;;;;23.33;4.80;;;16.00;99.90;;;;;;5053479;28;20331;-50
2023/10/06 07:27:44;;;;;;;21.00;4.53;;;16.00;99.90;;;;;;5054442;28;20368;-49
2023/10/06 07:30:11;;;;;;;17.98;3.20;;;16.00;99.90;;;;;;5054612;28;20024;-51
2023/10/06 07:32:41;;;;;;;23.98;4.53;;;16.00;99.90;;;;;;5054425;28;20025;-48
2023/10/06 07:35:19;;;;;;;11.20;2.58;;;16.00;99.90;;;;;;5054458;28;20033;-49
2023/10/06 07:37:47;;;;;;;27.23;5.20;;;16.00;99.90;;;;;;5054124;28;20037;-48
2023/10/06 07:40:15;;;;;;;31.92;5.43;;;16.00;99.90;;;;;;5052777;28;20035;-51
2023/10/06 07:42:52;;;;;;;8.48;2.75;;;16.10;99.90;;;;;;5054385;28;20033;-49
2023/10/06 07:45:18;;;;;;;23.90;4.40;;;16.10;99.90;;;;;;5058303;28;20124;-48
2023/10/06 07:47:44;;;;;;;14.75;3.53;;;16.10;99.90;;;;;;5058270;28;20025;-50
2023/10/06 07:50:14;;;;;;;26.20;4.68;;;16.10;99.90;;;;;;5058206;28;20116;-51
2023/10/06 07:52:44;;;;;;;24.55;5.47;;;16.10;99.90;;;;;;5057610;28;20091;-50
2023/10/06 07:55:10;;;;;;;22.80;4.85;;;16.10;99.90;;;;;;5058011;28;20025;-51
2023/10/06 07:57:37;;;;;;;22.73;4.97;;;16.10;99.90;;;;;;5057030;28;20477;-51
2023/10/06 08:00:07;;;;;;;36.10;6.10;;;16.10;99.90;;;;;;5057903;28;20057;-51
2023/10/06 08:02:33;;;;;;;31.48;5.57;;;16.10;99.90;;;;;;5057612;28;20029;-50
2023/10/06 08:05:01;;;;;;;28.00;5.20;;;16.10;99.90;;;;;;5039600;28;20041;-51
2023/10/06 08:07:27;;;;;;;21.20;4.70;;;16.10;99.90;;;;;;5057872;28;20105;-48
2023/10/06 08:10:00;;;;;;;21.33;4.32;;;16.10;99.90;;;;;;5057041;28;20017;-52
2023/10/06 08:12:27;;;;;;;14.80;3.97;;;16.10;99.90;;;;;;5056490;28;20040;-49
2023/10/06 08:14:54;;;;;;;21.05;4.30;;;16.10;99.90;;;;;;5057770;28;20029;-48
2023/10/06 08:17:20;;;;;;;18.85;4.18;;;16.10;99.90;;;;;;5057683;28;20064;-48
2023/10/06 08:19:46;;;;;;;23.55;3.90;;;16.10;99.90;;;;;;5058076;28;20072;-51
2023/10/06 08:22:13;;;;;;;30.50;4.88;;;16.00;99.90;;;;;;5039464;28;20040;-48
2023/10/06 08:24:38;;;;;;;23.88;4.07;;;16.00;99.90;;;;;;5057481;28;20351;-49
2023/10/06 08:27:07;;;;;;;17.20;3.95;;;16.00;99.90;;;;;;5039564;28;20043;-48
2023/10/06 08:29:33;;;;;;;20.95;4.28;;;16.00;99.90;;;;;;5056343;28;20445;-51
2023/10/06 08:31:59;;;;;;;26.23;5.18;;;16.00;99.90;;;;;;5055947;28;20033;-48
2023/10/06 08:34:27;;;;;;;27.23;4.82;;;16.10;99.90;;;;;;5057049;28;20039;-49
2023/10/06 08:36:53;;;;;;;26.63;5.18;;;16.10;99.90;;;;;;5056037;28;20035;-49
2023/10/06 08:39:20;;;;;;;20.25;5.03;;;16.10;99.90;;;;;;5057173;28;20032;-49
2023/10/06 08:41:46;;;;;;;21.85;4.43;;;16.00;99.90;;;;;;5057006;28;20033;-50
2023/10/06 08:44:12;;;;;;;16.63;4.07;;;16.00;99.90;;;;;;5039443;28;20029;-51
2023/10/06 08:46:44;;;;;;;19.20;3.90;;;16.10;99.90;;;;;;5056086;28;20037;-49
2023/10/06 08:49:10;;;;;;;20.90;4.68;;;16.00;99.90;;;;;;5055990;28;20033;-50
2023/10/06 08:51:36;;;;;;;12.52;3.38;;;16.10;99.90;;;;;;5057151;28;20434;-47
2023/10/06 08:54:04;;;;;;;13.98;3.15;;;16.10;99.90;;;;;;5039186;28;20106;-49
2023/10/06 08:56:33;;;;;;;21.60;3.97;;;16.10;99.90;;;;;;5038700;28;20029;-50
2023/10/06 08:59:00;;;;;;;23.15;4.80;;;16.10;99.90;;;;;;5056343;28;20029;-50
2023/10/06 09:01:27;;;;;;;18.05;3.67;;;16.10;99.90;;;;;;5056802;28;20462;-51
2023/10/06 09:03:55;;;;;;;18.63;4.00;;;16.10;99.90;;;;;;5055525;28;20334;-51
2023/10/06 09:06:20;;;;;;;12.75;3.25;;;16.20;99.90;;;;;;5056368;28;20051;-50
2023/10/06 09:08:49;;;;;;;24.33;4.55;;;16.10;99.90;;;;;;5056546;28;20029;-50
2023/10/06 09:11:15;;;;;;;17.02;3.25;;;16.10;99.90;;;;;;5055562;28;20040;-51
2023/10/06 09:13:41;;;;;;;18.83;3.30;;;16.10;99.90;;;;;;5055546;28;20032;-48
2023/10/06 09:16:07;;;;;;;20.80;3.80;;;16.10;99.90;;;;;;5056713;28;20025;-51
2023/10/06 09:18:38;;;;;;;14.43;2.65;;;16.10;99.90;;;;;;5056512;28;20017;-50
2023/10/06 09:21:12;;;;;;;23.45;4.20;;;16.10;99.90;;;;;;5056422;28;20025;-50
2023/10/06 09:23:39;;;;;;;19.33;3.47;;;16.10;99.90;;;;;;5056628;28;20051;-52
2023/10/06 09:26:07;;;;;;;19.85;3.05;;;16.10;99.90;;;;;;5056171;28;20036;-51
2023/10/06 09:28:32;;;;;;;12.57;3.30;;;16.10;99.90;;;;;;5056389;28;20045;-50
2023/10/06 09:31:05;;;;;;;18.80;3.67;;;16.10;99.90;;;;;;5055111;28;20029;-50
2023/10/06 09:33:37;;;;;;;17.05;3.13;;;16.10;99.90;;;;;;5056404;28;20090;-50
2023/10/06 09:36:16;;;;;;;19.33;3.30;;;16.10;99.90;;;;;;5056392;28;20029;-50
2023/10/06 09:38:44;;;;;;;19.60;3.80;;;16.10;99.90;;;;;;5056046;28;20025;-51
2023/10/06 09:41:10;;;;;;;15.60;3.15;;;16.10;99.90;;;;;;5055610;28;20039;-51
2023/10/06 09:43:38;;;;;;;14.95;3.53;;;16.10;99.90;;;;;;5054465;28;20096;-49
2023/10/06 09:46:13;;;;;;;17.17;3.30;;;16.10;99.90;;;;;;5056089;28;20033;-49
2023/10/06 09:48:40;;;;;;;17.20;3.60;;;16.10;99.90;;;;;;5054785;28;20025;-52
2023/10/06 09:51:07;;;;;;;26.05;5.63;;;16.10;99.90;;;;;;5054677;28;20124;-50
2023/10/06 09:53:43;;;;;;;18.27;3.65;;;16.10;99.90;;;;;;5054861;28;20033;-50
2023/10/06 09:56:11;;;;;;;12.52;2.70;;;16.10;99.90;;;;;;5055901;28;20045;-50
2023/10/06 09:58:38;;;;;;;10.85;3.40;;;16.00;99.90;;;;;;5054662;28;20025;-49
2023/10/06 10:01:04;;;;;;;16.13;3.97;;;16.00;99.90;;;;;;5054409;28;20358;-51
2023/10/06 10:03:37;;;;;;;12.07;3.55;;;16.10;99.90;;;;;;5054740;28;20102;-51
2023/10/06 10:06:04;;;;;;;18.20;3.42;;;16.10;99.90;;;;;;5038200;28;20150;-52
2023/10/06 10:08:34;;;;;;;14.48;2.15;;;16.10;99.90;;;;;;5037390;28;20154;-50
2023/10/06 10:11:39;;;;;;;20.85;3.50;;;16.00;99.90;;;;;;5055562;28;20078;-50
2023/10/06 10:14:32;;;;;;;14.88;3.03;;;16.10;99.90;;;;;;5054486;28;20036;-56
2023/10/06 10:17:19;;;;;;;12.20;3.75;;;16.10;99.90;;;;;;5055075;28;20052;-50
2023/10/06 10:19:46;;;;;;;17.20;2.90;;;16.10;99.90;;;;;;5055162;28;20033;-52
2023/10/06 10:22:13;;;;;;;12.30;3.72;;;16.10;99.90;;;;;;5055077;28;20117;-49
2023/10/06 10:24:39;;;;;;;10.35;2.97;;;16.10;99.90;;;;;;5054133;28;20033;-50
2023/10/06 10:27:17;;;;;;;15.85;3.35;;;16.10;99.90;;;;;;5053772;28;20346;-48
2023/10/06 10:29:43;;;;;;;16.70;3.38;;;16.10;99.90;;;;;;5055221;28;20354;-48
2023/10/06 10:32:16;;;;;;;16.85;3.30;;;16.10;99.90;;;;;;5054955;28;20036;-48
2023/10/06 10:35:04;;;;;;;14.30;3.63;;;16.10;99.90;;;;;;5054767;28;20086;-50
2023/10/06 10:37:30;;;;;;;15.20;3.17;;;16.10;99.90;;;;;;5055131;28;20033;-49
2023/10/06 10:39:56;;;;;;;19.15;4.20;;;16.10;99.90;;;;;;5055241;28;20463;-52
2023/10/06 10:42:23;;;;;;;15.48;3.50;;;16.10;99.90;;;;;;5054926;28;20037;-50
2023/10/06 10:44:49;;;;;;;10.25;2.85;;;16.10;99.90;;;;;;5053689;28;20029;-48
2023/10/06 10:47:20;;;;;;;16.55;3.45;;;16.10;99.90;;;;;;5053285;28;20044;-48
2023/10/06 10:49:47;;;;;;;12.18;3.47;;;16.10;99.90;;;;;;5053628;28;20033;-50
2023/10/06 10:52:13;;;;;;;21.02;4.78;;;16.10;99.90;;;;;;5053266;28;20116;-50
2023/10/06 10:54:39;;;;;;;16.92;3.67;;;16.10;99.90;;;;;;5036962;28;20160;-50
2023/10/06 10:57:06;;;;;;;19.50;4.47;;;16.10;99.90;;;;;;5053261;28;20092;-51
2023/10/06 11:02:52;;;;;;;17.13;4.03;;;16.10;99.90;;;;;;5054363;28;20124;-47
2023/10/06 11:05:21;;;;;;;17.30;4.90;;;16.20;99.90;;;;;;5054313;28;20048;-50
2023/10/06 11:07:54;;;;;;;18.30;4.78;;;16.20;99.90;;;;;;5054555;28;20082;-50
2023/10/06 11:10:22;;;;;;;16.02;3.78;;;16.20;99.90;;;;;;5053951;28;20394;-50
2023/10/06 11:12:50;;;;;;;17.73;5.30;;;16.20;99.90;;;;;;5052971;28;20033;-50
2023/10/06 11:15:28;;;;;;;17.52;3.42;;;16.20;99.90;;;;;;5054148;28;20100;-50
2023/10/06 11:18:00;;;;;;;14.13;4.20;;;16.20;99.90;;;;;;5052602;28;20037;-48
2023/10/06 11:20:31;;;;;;;25.13;6.50;;;16.20;99.90;;;;;;5053039;28;20037;-48
2023/10/06 11:23:00;;;;;;;19.73;3.92;;;16.20;99.90;;;;;;5054150;28;20319;-50
2023/10/06 11:25:29;;;;;;;14.60;4.10;;;16.20;99.90;;;;;;5054398;28;20465;-49
2023/10/06 11:28:02;;;;;;;16.83;4.68;;;16.20;99.90;;;;;;5054015;28;20335;-46
2023/10/06 11:30:28;;;;;;;21.55;5.15;;;16.20;99.90;;;;;;5053828;28;20037;-47
2023/10/06 11:32:57;;;;;;;11.90;2.90;;;16.30;99.90;;;;;;5036615;28;20135;-50
2023/10/06 11:35:22;;;;;;;13.65;3.80;;;16.20;99.90;;;;;;5054381;28;20029;-49
2023/10/06 11:37:48;;;;;;;19.83;4.07;;;16.30;99.90;;;;;;5054176;28;20120;-50
2023/10/06 11:40:15;;;;;;;21.77;4.78;;;16.20;99.90;;;;;;5053328;28;20040;-50
2023/10/06 11:42:41;;;;;;;17.42;4.18;;;16.30;99.90;;;;;;5052889;28;20037;-50
2023/10/06 11:45:36;;;;;;;12.50;3.03;;;16.30;99.90;;;;;;5054053;28;20064;-50
2023/10/06 11:48:02;;;;;;;22.25;4.53;;;16.20;99.90;;;;;;5053024;28;20051;-48
2023/10/06 11:50:34;;;;;;;23.58;4.70;;;16.20;99.90;;;;;;5053608;28;20339;-50
2023/10/06 11:52:59;;;;;;;21.08;4.68;;;16.20;99.90;;;;;;5053521;28;20408;-51
2023/10/06 11:55:35;;;;;;;20.10;4.88;;;16.20;99.90;;;;;;5054068;28;20025;-50
2023/10/06 11:58:04;;;;;;;23.50;5.40;;;16.30;99.90;;;;;;5052830;28;20055;-50
2023/10/06 12:00:41;;;;;;;19.83;5.40;;;16.30;99.90;;;;;;5052737;28;20095;-51
2023/10/06 12:03:10;;;;;;;22.05;4.93;;;16.40;99.90;;;;;;5052534;28;20037;-49
2023/10/06 12:05:36;;;;;;;19.27;5.00;;;16.30;99.90;;;;;;5053216;28;20049;-51
2023/10/06 12:08:05;;;;;;;29.55;5.32;;;16.40;99.90;;;;;;5053848;28;20033;-50
2023/10/06 12:10:32;;;;;;;29.58;7.88;;;16.30;99.90;;;;;;5052777;28;20025;-48
2023/10/06 12:12:58;;;;;;;26.92;5.57;;;16.40;99.90;;;;;;5053446;28;20035;-48
2023/10/06 12:15:26;;;;;;;17.02;4.20;;;16.40;99.90;;;;;;5053682;28;20091;-49
2023/10/06 12:17:52;;;;;;;20.17;4.30;;;16.40;99.90;;;;;;5052268;28;20134;-48
2023/10/06 12:20:18;;;;;;;30.70;5.53;;;16.30;99.90;;;;;;5053496;28;20108;-48
2023/10/06 12:22:45;;;;;;;30.42;6.68;;;16.40;99.90;;;;;;5053686;28;20111;-48
2023/10/06 12:25:11;;;;;;;34.47;7.03;;;16.30;99.90;;;;;;5053396;28;20116;-49
2023/10/06 12:27:40;;;;;;;35.95;6.95;;;16.30;99.90;;;;;;5035898;28;20134;-48
2023/10/06 12:30:07;;;;;;;25.88;6.03;;;16.40;99.90;;;;;;5054262;28;20044;-51
2023/10/06 12:32:33;;;;;;;28.08;6.00;;;16.40;99.90;;;;;;5057248;28;20021;-49
2023/10/06 12:35:05;;;;;;;12.60;3.80;;;16.40;99.90;;;;;;5055819;28;20112;-50
2023/10/06 12:37:32;;;;;;;32.25;6.10;;;16.40;99.90;;;;;;5057072;28;20090;-49
2023/10/06 12:39:58;;;;;;;26.63;5.60;;;16.50;99.90;;;;;;5057222;28;20103;-50
2023/10/06 12:42:23;;;;;;;34.42;6.63;;;16.40;99.90;;;;;;5056916;28;20045;-50
2023/10/06 12:44:49;;;;;;;26.38;5.82;;;16.50;99.90;;;;;;5056693;28;20039;-50
2023/10/06 12:47:15;;;;;;;28.48;6.38;;;16.50;99.90;;;;;;5056673;28;20045;-48
2023/10/06 12:49:45;;;;;;;18.15;3.88;;;16.60;99.90;;;;;;5056505;28;20032;-47
2023/10/06 12:52:11;;;;;;;23.23;5.10;;;16.50;99.90;;;;;;5055695;28;20033;-49